DONNÉES MÉTÉO

AUJOURD'HUI
Time Temp. Dewp. Hum. Directi La vitess Wind gust Bar. 1h Prec. 24h Prec.
00:05 22.3 13.9 59 326 0.6 1.1 1012.4 0.0000 0.0000
00:16 22.2 13.8 59 325 0.6 1.4 1012.4 0.0000 0.0000
00:25 22.1 14 60 331 0.3 1.7 1012.4 0.0000 0.0000
00:35 22 13.9 60 326 0.6 1.4 1012.4 0.0000 0.0000
00:45 21.9 14.3 62 334 0.3 1.4 1012.4 0.0000 0.0000
00:56 21.8 14.5 63 325 0.3 1.1 1012.4 0.0000 0.0000
01:06 21.7 14.4 63 324 0.6 1.1 1012.3 0.0000 0.0000
01:15 21.6 14.5 64 328 0.3 1.1 1012.3 0.0000 0.0000
01:26 21.5 14.4 64 323 0.6 1.1 1012.2 0.0000 0.0000
01:36 21.4 14.3 64 323 0.6 1.4 1012.2 0.0000 0.0000
01:46 21.2 14.4 65 329 0.6 1.4 1012.2 0.0000 0.0000
01:56 21.2 14.4 65 336 0.6 1.4 1012.2 0.0000 0.0000
02:06 21.1 14.3 65 325 0.3 1.4 1012.2 0.0000 0.0000
02:16 21.1 14.5 66 322 0.3 1.4 1012.2 0.0000 0.0000
02:26 21.1 14.3 65 327 0.3 0.8 1012.2 0.0000 0.0000
02:36 21.1 14.3 65 328 0.3 1.4 1012.2 0.0000 0.0000
02:47 21 14.2 65 326 0.3 0.8 1012.2 0.0000 0.0000
02:56 21 14.2 65 327 0.3 1.4 1012.3 0.0000 0.0000
03:06 20.9 14.3 66 330 0.6 1.4 1012.4 0.0000 0.0000
03:17 20.9 14.3 66 335 0.3 0.8 1012.3 0.0000 0.0000
03:27 21 14.4 66 0 0.6 1012.4 0.0000 0.0000
03:37 21.1 14 64 0 0.6 1012.4 0.0000 0.0000
03:47 21.2 14.1 64 0 0.6 1012.4 0.0000 0.0000
03:57 21.3 14 63 225 0.3 0.8 1012.4 0.0000 0.0000
04:07 21.3 14 63 330 0.3 0.8 1012.5 0.0000 0.0000
04:17 21.1 14 64 330 0.3 1.4 1012.5 0.0000 0.0000
04:28 20.9 14.1 65 327 0.3 1.1 1012.6 0.0000 0.0000
04:37 20.7 14.1 66 327 0.6 1.7 1012.7 0.0000 0.0000
04:47 20.4 14.1 67 326 0.6 1.4 1012.7 0.0000 0.0000
04:57 20 13.9 68 330 0.8 2.2 1012.6 0.0000 0.0000
05:08 19.7 13.9 69 328 0.8 2.2 1012.5 0.0000 0.0000
05:18 19.3 13.9 71 326 0.8 3.6 1012.5 0.0000 0.0000
05:27 19.1 13.9 72 327 0.6 1.4 1012.5 0.0000 0.0000
05:38 18.9 14 73 320 0.8 1.9 1012.6 0.0000 0.0000
05:48 18.8 13.9 73 325 0.6 1.4 1012.6 0.0000 0.0000
05:58 18.7 14 74 322 0.8 1.9 1012.7 0.0000 0.0000
06:08 18.6 13.9 74 326 0.6 1.9 1012.8 0.0000 0.0000
06:18 18.5 14 75 331 0.6 1.7 1012.8 0.0000 0.0000
06:28 18.5 14 75 329 0.6 1.4 1012.8 0.0000 0.0000
06:38 18.4 13.9 75 330 0.6 1.7 1012.9 0.0000 0.0000
06:49 18.3 14 76 326 0.8 1.9 1013 0.0000 0.0000
06:59 18.3 14 76 330 0.8 1.9 1012.9 0.0000 0.0000
07:08 18.3 14 76 324 0.8 2.2 1013 0.0000 0.0000
07:18 18.3 14 76 324 0.8 1.7 1013 0.0000 0.0000
07:29 18.4 14.1 76 321 0.8 1.9 1013.1 0.0000 0.0000
07:39 18.5 14.4 77 325 0.8 2.5 1013.2 0.0000 0.0000
07:49 18.6 14.5 77 325 0.6 1.7 1013.2 0.0000 0.0000
07:59 18.7 14.4 76 326 0.6 1.4 1013.2 0.0000 0.0000
08:09 18.9 14.6 76 325 0.6 1.4 1013.2 0.0000 0.0000
08:19 19.1 14.8 76 321 0.3 1.1 1013.2 0.0000 0.0000
08:29 19.5 15 75 322 0.3 0.8 1013.2 0.0000 0.0000
08:39 19.9 15.3 75 327 0.3 1.4 1013.2 0.0000 0.0000
08:49 20.3 15.5 74 334 0.6 1.1 1013.2 0.0000 0.0000
08:59 20.8 15.8 73 326 0.3 0.8 1013.2 0.0000 0.0000
09:10 21.3 16.1 72 341 0.3 0.6 1013.2 0.0000 0.0000
09:20 21.9 16 69 0 0.3 1013.2 0.0000 0.0000
09:29 22.4 16 67 0 0.6 1013.2 0.0000 0.0000
09:39 23 16.3 66 0 0.3 1013.2 0.0000 0.0000
09:50 23.6 16.6 65 0 0.6 1013.1 0.0000 0.0000
10:00 24.2 16.7 63 0 0.8 1013.1 0.0000 0.0000
10:10 24.6 16.6 61 0 0.6 1013 0.0000 0.0000
10:20 24.9 16.9 61 135 0.3 0.8 1013 0.0000 0.0000
10:30 25 16.7 60 147 0.6 1.4 1013 0.0000 0.0000
10:40 24.7 16.9 62 137 0.6 1.4 1013 0.0000 0.0000
10:50 24.6 17.1 63 135 0.6 1.4 1013 0.0000 0.0000
11:01 24.6 17.1 63 143 0.6 1.4 1013 0.0000 0.0000
11:10 24.6 17.3 64 142 0.3 1.1 1013 0.0000 0.0000
11:20 24.7 17.4 64 135 0.3 1.1 1013 0.0000 0.0000
11:31 24.7 17.4 64 142 0.6 1.7 1012.9 0.0000 0.0000
11:41 24.6 17.3 64 144 0.6 1.7 1012.9 0.0000 0.0000
11:51 24.6 17.6 65 153 0.6 1.4 1012.8 0.0000 0.0000
12:00 24.6 17.6 65 138 0.6 1.4 1012.6 0.0000 0.0000
12:11 24.7 17.7 65 148 0.6 1.7 1012.6 0.0000 0.0000
12:21 24.6 17.6 65 135 0.6 1.7 1012.5 0.0000 0.0000
12:31 24.6 17.6 65 147 0.6 1.7 1012.5 0.0000 0.0000
12:41 24.6 17.6 65 145 0.8 2.2 1012.4 0.0000 0.0000
12:51 24.5 17.5 65 143 1.1 2.5 1012.2 0.0000 0.0000
13:01 24.7 17.9 66 145 0.6 2.2 1012.1 0.0000 0.0000
13:11 25.2 18.2 65 147 0.8 1.9 1012 0.0000 0.0000
13:22 25.4 17.8 63 144 0.6 1.9 1012 0.0000 0.0000
13:32 25.3 18.3 65 152 0.8 2.2 1012.1 0.0000 0.0000
13:41 25.4 18.3 65 149 0.8 2.5 1012.1 0.0000 0.0000
13:52 25.4 17.8 63 143 0.3 1.1 1012.4 0.0000 0.0000
14:02 25.4 18.1 64 135 0.3 0.8 1012.4 0.0000 0.0000
14:12 25.4 15.4 54 348 0.6 1.4 1012.3 0.0000 0.0000
14:22 25 15.1 54 324 0.3 1.4 1012.2 0.0000 0.0000
14:32 25.2 15.2 54 336 0.3 1.1 1012 0.0000 0.0000
14:42 26.1 15.8 53 326 0.3 1.4 1011.9 0.0000 0.0000
14:52 26.3 15.4 51 331 0.6 1.9 1011.8 0.0000 0.0000
15:02 25.5 14.9 52 331 0.6 1.4 1011.5 0.0000 0.0000
15:13 25 14.8 53 323 0.6 2.2 1011.3 0.0000 0.0000
15:22 24.8 14.6 53 333 0.6 1.7 1011.1 0.0000 0.0000
15:32 24.7 14.2 52 330 0.6 1.9 1011 0.0000 0.0000
15:43 24.5 14.6 54 328 0.8 1.9 1010.9 0.0000 0.0000
15:53 24.2 15.2 57 324 0.6 1.7 1010.9 0.0000 0.0000
16:02 24.2 15.4 58 323 0.6 1.1 1010.9 0.0000 0.0000
16:13 24.6 15.5 57 328 0.6 1.4 1010.9 0.0000 0.0000
16:23 26.2 16.2 54 0 0.3 0.8 1010.9 0.0000 0.0000
16:33 28.3 14.9 44 315 0.6 1.9 1010.8 0.0000 0.0000
16:43 29 14.8 42 329 0.6 1.4 1010.6 0.0000 0.0000
16:53 29.7 15.4 42 323 0.6 1.4 1010.4 0.0000 0.0000
17:03 30.6 15.1 39 330 0.6 1.7 1010.5 0.0000 0.0000
17:13 30.3 14.8 39 324 0.6 1.7 1010.6 0.0000 0.0000
17:23 30 15.7 42 329 0.8 2.2 1010.7 0.0000 0.0000
17:34 29.7 16.5 45 330 0.6 1.7 1010.8 0.0000 0.0000
17:44 29.9 16.7 45 323 0.8 2.2 1010.7 0.0000 0.0000
17:53 30.3 17.4 46 326 0.8 2.8 1010.7 0.0000 0.0000
18:04 30.8 16.8 43 324 0.6 2.8 1010.7 0.0000 0.0000
18:14 30.4 17.1 45 45 0.3 0.6 1010.8 0.0000 0.0000
18:24 30.7 18.4 48 135 0.3 0.8 1010.8 0.0000 0.0000
18:33 30.5 18.3 48 270 0.3 0.6 1010.7 0.0000 0.0000
18:44 30.2 18 48 180 0.3 0.8 1010.6 0.0000 0.0000
18:54 29.7 17.9 49 335 0.3 0.6 1010.6 0.0000 0.0000

SATISTIQUES DU JOUR

2022-08-17
TEMPÉRATURE
MOYEN
23.2
MAXI
30.8
18:04
MINI
18.3
06:49
PRESSION
MOYEN
1012.2
MAXI
1013.2
07:39
MINI
1010.4
16:53
POINT DE ROSÉE
MOYEN
15.5
MAXI
18.4
18:24
MINI
13.8
00:16
HUMIDITÉ
MOYEN
63
MAXI
77
07:39
MINI
39
17:03
LA VITESSE DU VENT
MOYEN
0.5
MAXI
1.1
12:51
WIND GUST
MOYEN
1.4
MAXI
3.6
05:18
DIRECTION DU VENT
PREVAILING
NW
64.6%
N
2.7
NE
0.9
E
0.0
SE
21.2
S
0.9
SW
0.9
W
0.9
NW
64.6
PRÉCIPITATIONS
RAIN HOUR
0.0
RAIN DAY
0.0
TEMPÉRATURE (°C)
MINI
18.3
MAXI
30.8
MOYEN
23.2
PRESSION (hpa)
MINI
1010.4
MAXI
1013.2
MOYEN
1012.2
DEVICE